<?xml version="1.0" encoding="UTF-8" standalone="no" ?>
<gpx xmlns="http://www.topografix.com/GPX/1/1" xmlns:xsi="http://www.w3.org/2001/XMLSchema-instance" xsi:schemaLocation="http://www.topografix.com/GPX/1/1 http://www.topografix.com/GPX/1/1/gpx.xsd" version="1.1" creator="VisuGPX - https://www.visugpx.com">
  <metadata>
    <name>secteur Saverne - Dabo - Petite Pierre</name>
  </metadata>
  <trk>
    <name><![CDATA[secteur Saverne - Dabo - Petite Pierre_11]]></name>
    <trkseg>
      <trkpt lat="48.63062" lon="7.12215">
        <ele>357.3</ele>
        <time>2020-08-12T08:26:23Z</time>
      </trkpt>
      <trkpt lat="48.63062" lon="7.12215">
        <ele>357.3</ele>
        <time>2020-08-12T08:26:23Z</time>
      </trkpt>
      <trkpt lat="48.63062" lon="7.12215">
        <ele>357.3</ele>
        <time>2020-08-12T08:26:23Z</time>
      </trkpt>
      <trkpt lat="48.63062" lon="7.12215">
        <ele>357.3</ele>
        <time>2020-08-12T08:26:23Z</time>
      </trkpt>
      <trkpt lat="48.63062" lon="7.12215">
        <ele>357.3</ele>
        <time>2020-08-12T08:26:23Z</time>
      </trkpt>
      <trkpt lat="48.63062" lon="7.12215">
        <ele>357.3</ele>
        <time>2020-08-12T08:26:23Z</time>
      </trkpt>
      <trkpt lat="48.63062" lon="7.12215">
        <ele>357.3</ele>
        <time>2020-08-12T08:26:23Z</time>
      </trkpt>
      <trkpt lat="48.63062" lon="7.12215">
        <ele>357.3</ele>
        <time>2020-08-12T08:26:23Z</time>
      </trkpt>
      <trkpt lat="48.63059" lon="7.1222">
        <ele>357.5</ele>
        <time>2020-08-12T08:26:27Z</time>
      </trkpt>
      <trkpt lat="48.63061" lon="7.12227">
        <ele>359.2</ele>
        <time>2020-08-12T08:26:44Z</time>
      </trkpt>
      <trkpt lat="48.63065" lon="7.12232">
        <ele>361.2</ele>
        <time>2020-08-12T08:26:49Z</time>
      </trkpt>
      <trkpt lat="48.63069" lon="7.12236">
        <ele>362.6</ele>
        <time>2020-08-12T08:26:53Z</time>
      </trkpt>
      <trkpt lat="48.63073" lon="7.12242">
        <ele>363.1</ele>
        <time>2020-08-12T08:27:00Z</time>
      </trkpt>
      <trkpt lat="48.63068" lon="7.1224">
        <ele>369.9</ele>
        <time>2020-08-12T08:27:43Z</time>
      </trkpt>
      <trkpt lat="48.63063" lon="7.12239">
        <ele>371</ele>
        <time>2020-08-12T08:27:49Z</time>
      </trkpt>
      <trkpt lat="48.63058" lon="7.1224">
        <ele>371.4</ele>
        <time>2020-08-12T08:28:01Z</time>
      </trkpt>
      <trkpt lat="48.63054" lon="7.12245">
        <ele>371.4</ele>
        <time>2020-08-12T08:28:10Z</time>
      </trkpt>
      <trkpt lat="48.63052" lon="7.12251">
        <ele>370.9</ele>
        <time>2020-08-12T08:28:22Z</time>
      </trkpt>
      <trkpt lat="48.63049" lon="7.12256">
        <ele>370.8</ele>
        <time>2020-08-12T08:28:32Z</time>
      </trkpt>
      <trkpt lat="48.63044" lon="7.12258">
        <ele>370.7</ele>
        <time>2020-08-12T08:28:37Z</time>
      </trkpt>
      <trkpt lat="48.6304" lon="7.12262">
        <ele>371.7</ele>
        <time>2020-08-12T08:28:42Z</time>
      </trkpt>
      <trkpt lat="48.63036" lon="7.12266">
        <ele>374.2</ele>
        <time>2020-08-12T08:28:50Z</time>
      </trkpt>
      <trkpt lat="48.63031" lon="7.1227">
        <ele>372.5</ele>
        <time>2020-08-12T08:28:54Z</time>
      </trkpt>
      <trkpt lat="48.63026" lon="7.12272">
        <ele>371.8</ele>
        <time>2020-08-12T08:28:57Z</time>
      </trkpt>
      <trkpt lat="48.63022" lon="7.12279">
        <ele>370.2</ele>
        <time>2020-08-12T08:29:00Z</time>
      </trkpt>
      <trkpt lat="48.63017" lon="7.12285">
        <ele>370.1</ele>
        <time>2020-08-12T08:29:03Z</time>
      </trkpt>
      <trkpt lat="48.63013" lon="7.12289">
        <ele>370.5</ele>
        <time>2020-08-12T08:29:05Z</time>
      </trkpt>
      <trkpt lat="48.6301" lon="7.12294">
        <ele>370.5</ele>
        <time>2020-08-12T08:29:07Z</time>
      </trkpt>
      <trkpt lat="48.63006" lon="7.12299">
        <ele>370.1</ele>
        <time>2020-08-12T08:29:09Z</time>
      </trkpt>
      <trkpt lat="48.63004" lon="7.12305">
        <ele>370</ele>
        <time>2020-08-12T08:29:11Z</time>
      </trkpt>
      <trkpt lat="48.63001" lon="7.12312">
        <ele>370.1</ele>
        <time>2020-08-12T08:29:13Z</time>
      </trkpt>
      <trkpt lat="48.62999" lon="7.12319">
        <ele>369.9</ele>
        <time>2020-08-12T08:29:15Z</time>
      </trkpt>
      <trkpt lat="48.62998" lon="7.12328">
        <ele>370.4</ele>
        <time>2020-08-12T08:29:17Z</time>
      </trkpt>
      <trkpt lat="48.62999" lon="7.12337">
        <ele>370.5</ele>
        <time>2020-08-12T08:29:19Z</time>
      </trkpt>
      <trkpt lat="48.63" lon="7.12345">
        <ele>371.5</ele>
        <time>2020-08-12T08:29:21Z</time>
      </trkpt>
      <trkpt lat="48.63001" lon="7.12353">
        <ele>372.6</ele>
        <time>2020-08-12T08:29:25Z</time>
      </trkpt>
      <trkpt lat="48.63002" lon="7.1236">
        <ele>373</ele>
        <time>2020-08-12T08:29:33Z</time>
      </trkpt>
      <trkpt lat="48.63003" lon="7.12367">
        <ele>374.9</ele>
        <time>2020-08-12T08:29:39Z</time>
      </trkpt>
      <trkpt lat="48.63003" lon="7.12374">
        <ele>374.5</ele>
        <time>2020-08-12T08:29:42Z</time>
      </trkpt>
      <trkpt lat="48.63004" lon="7.12381">
        <ele>373.7</ele>
        <time>2020-08-12T08:29:45Z</time>
      </trkpt>
      <trkpt lat="48.63006" lon="7.12388">
        <ele>373.9</ele>
        <time>2020-08-12T08:29:48Z</time>
      </trkpt>
      <trkpt lat="48.6301" lon="7.12393">
        <ele>374.4</ele>
        <time>2020-08-12T08:29:55Z</time>
      </trkpt>
      <trkpt lat="48.63013" lon="7.12399">
        <ele>375.3</ele>
        <time>2020-08-12T08:30:02Z</time>
      </trkpt>
      <trkpt lat="48.63014" lon="7.12406">
        <ele>378.7</ele>
        <time>2020-08-12T08:30:11Z</time>
      </trkpt>
      <trkpt lat="48.63013" lon="7.12398">
        <ele>392.2</ele>
        <time>2020-08-12T08:30:32Z</time>
      </trkpt>
      <trkpt lat="48.63014" lon="7.1239">
        <ele>395.2</ele>
        <time>2020-08-12T08:30:37Z</time>
      </trkpt>
      <trkpt lat="48.63014" lon="7.12382">
        <ele>397</ele>
        <time>2020-08-12T08:30:42Z</time>
      </trkpt>
      <trkpt lat="48.63017" lon="7.12374">
        <ele>397.8</ele>
        <time>2020-08-12T08:30:47Z</time>
      </trkpt>
      <trkpt lat="48.63019" lon="7.12368">
        <ele>398.1</ele>
        <time>2020-08-12T08:30:51Z</time>
      </trkpt>
      <trkpt lat="48.6302" lon="7.1236">
        <ele>397.2</ele>
        <time>2020-08-12T08:31:06Z</time>
      </trkpt>
      <trkpt lat="48.63023" lon="7.12354">
        <ele>397.9</ele>
        <time>2020-08-12T08:31:09Z</time>
      </trkpt>
      <trkpt lat="48.63026" lon="7.12348">
        <ele>397.8</ele>
        <time>2020-08-12T08:31:11Z</time>
      </trkpt>
      <trkpt lat="48.63031" lon="7.12344">
        <ele>398</ele>
        <time>2020-08-12T08:31:13Z</time>
      </trkpt>
      <trkpt lat="48.63036" lon="7.12341">
        <ele>398.4</ele>
        <time>2020-08-12T08:31:15Z</time>
      </trkpt>
      <trkpt lat="48.63043" lon="7.12341">
        <ele>398.4</ele>
        <time>2020-08-12T08:31:18Z</time>
      </trkpt>
      <trkpt lat="48.63049" lon="7.12344">
        <ele>398.6</ele>
        <time>2020-08-12T08:31:21Z</time>
      </trkpt>
      <trkpt lat="48.63053" lon="7.12348">
        <ele>398.5</ele>
        <time>2020-08-12T08:31:23Z</time>
      </trkpt>
      <trkpt lat="48.63058" lon="7.12351">
        <ele>398.8</ele>
        <time>2020-08-12T08:31:27Z</time>
      </trkpt>
      <trkpt lat="48.63063" lon="7.12354">
        <ele>399.2</ele>
        <time>2020-08-12T08:31:30Z</time>
      </trkpt>
      <trkpt lat="48.63067" lon="7.12359">
        <ele>398.9</ele>
        <time>2020-08-12T08:31:33Z</time>
      </trkpt>
      <trkpt lat="48.63073" lon="7.12363">
        <ele>398.9</ele>
        <time>2020-08-12T08:31:36Z</time>
      </trkpt>
      <trkpt lat="48.63076" lon="7.12368">
        <ele>399.3</ele>
        <time>2020-08-12T08:31:41Z</time>
      </trkpt>
      <trkpt lat="48.63078" lon="7.12375">
        <ele>400.1</ele>
        <time>2020-08-12T08:31:46Z</time>
      </trkpt>
      <trkpt lat="48.63082" lon="7.12381">
        <ele>400.8</ele>
        <time>2020-08-12T08:31:53Z</time>
      </trkpt>
      <trkpt lat="48.63086" lon="7.12386">
        <ele>402</ele>
        <time>2020-08-12T08:32:14Z</time>
      </trkpt>
      <trkpt lat="48.63091" lon="7.12387">
        <ele>403.2</ele>
        <time>2020-08-12T08:32:30Z</time>
      </trkpt>
      <trkpt lat="48.63093" lon="7.12393">
        <ele>403.3</ele>
        <time>2020-08-12T08:32:39Z</time>
      </trkpt>
      <trkpt lat="48.63096" lon="7.124">
        <ele>403.5</ele>
        <time>2020-08-12T08:32:45Z</time>
      </trkpt>
      <trkpt lat="48.63099" lon="7.12406">
        <ele>405.4</ele>
        <time>2020-08-12T08:32:56Z</time>
      </trkpt>
      <trkpt lat="48.63102" lon="7.12413">
        <ele>405.6</ele>
        <time>2020-08-12T08:33:00Z</time>
      </trkpt>
      <trkpt lat="48.63107" lon="7.12419">
        <ele>405.9</ele>
        <time>2020-08-12T08:33:03Z</time>
      </trkpt>
      <trkpt lat="48.6311" lon="7.12427">
        <ele>406.7</ele>
        <time>2020-08-12T08:33:06Z</time>
      </trkpt>
      <trkpt lat="48.63114" lon="7.12433">
        <ele>407.9</ele>
        <time>2020-08-12T08:33:08Z</time>
      </trkpt>
      <trkpt lat="48.63118" lon="7.12438">
        <ele>408.9</ele>
        <time>2020-08-12T08:33:10Z</time>
      </trkpt>
      <trkpt lat="48.63122" lon="7.12444">
        <ele>410</ele>
        <time>2020-08-12T08:33:15Z</time>
      </trkpt>
      <trkpt lat="48.63123" lon="7.12451">
        <ele>411.1</ele>
        <time>2020-08-12T08:33:22Z</time>
      </trkpt>
      <trkpt lat="48.63119" lon="7.12448">
        <ele>419.6</ele>
        <time>2020-08-12T08:34:07Z</time>
      </trkpt>
      <trkpt lat="48.63114" lon="7.12447">
        <ele>426.2</ele>
        <time>2020-08-12T08:34:58Z</time>
      </trkpt>
      <trkpt lat="48.6311" lon="7.12447">
        <ele>428.5</ele>
        <time>2020-08-12T08:35:22Z</time>
      </trkpt>
      <trkpt lat="48.63104" lon="7.12446">
        <ele>429.9</ele>
        <time>2020-08-12T08:35:29Z</time>
      </trkpt>
      <trkpt lat="48.631" lon="7.12451">
        <ele>430.1</ele>
        <time>2020-08-12T08:35:34Z</time>
      </trkpt>
      <trkpt lat="48.631" lon="7.12459">
        <ele>428.8</ele>
        <time>2020-08-12T08:36:01Z</time>
      </trkpt>
      <trkpt lat="48.63102" lon="7.12466">
        <ele>428.2</ele>
        <time>2020-08-12T08:36:05Z</time>
      </trkpt>
      <trkpt lat="48.63105" lon="7.12473">
        <ele>428.4</ele>
        <time>2020-08-12T08:36:08Z</time>
      </trkpt>
      <trkpt lat="48.63108" lon="7.12479">
        <ele>428.5</ele>
        <time>2020-08-12T08:36:12Z</time>
      </trkpt>
      <trkpt lat="48.63113" lon="7.1248">
        <ele>427.1</ele>
        <time>2020-08-12T08:36:24Z</time>
      </trkpt>
      <trkpt lat="48.63118" lon="7.12484">
        <ele>427.7</ele>
        <time>2020-08-12T08:36:27Z</time>
      </trkpt>
      <trkpt lat="48.63123" lon="7.1249">
        <ele>428.4</ele>
        <time>2020-08-12T08:36:30Z</time>
      </trkpt>
      <trkpt lat="48.63126" lon="7.12497">
        <ele>428.8</ele>
        <time>2020-08-12T08:36:32Z</time>
      </trkpt>
      <trkpt lat="48.63129" lon="7.12504">
        <ele>429.7</ele>
        <time>2020-08-12T08:36:34Z</time>
      </trkpt>
      <trkpt lat="48.63132" lon="7.12512">
        <ele>431.1</ele>
        <time>2020-08-12T08:36:36Z</time>
      </trkpt>
      <trkpt lat="48.63134" lon="7.1252">
        <ele>432.2</ele>
        <time>2020-08-12T08:36:38Z</time>
      </trkpt>
      <trkpt lat="48.63137" lon="7.12528">
        <ele>433.1</ele>
        <time>2020-08-12T08:36:40Z</time>
      </trkpt>
      <trkpt lat="48.63141" lon="7.12534">
        <ele>434.8</ele>
        <time>2020-08-12T08:36:42Z</time>
      </trkpt>
      <trkpt lat="48.63143" lon="7.1254">
        <ele>435.3</ele>
        <time>2020-08-12T08:36:44Z</time>
      </trkpt>
      <trkpt lat="48.63145" lon="7.12547">
        <ele>435.6</ele>
        <time>2020-08-12T08:36:46Z</time>
      </trkpt>
      <trkpt lat="48.63148" lon="7.12555">
        <ele>435.5</ele>
        <time>2020-08-12T08:36:48Z</time>
      </trkpt>
      <trkpt lat="48.6315" lon="7.12563">
        <ele>435.2</ele>
        <time>2020-08-12T08:36:50Z</time>
      </trkpt>
      <trkpt lat="48.63153" lon="7.12572">
        <ele>435.5</ele>
        <time>2020-08-12T08:36:52Z</time>
      </trkpt>
      <trkpt lat="48.63156" lon="7.12581">
        <ele>435.3</ele>
        <time>2020-08-12T08:36:54Z</time>
      </trkpt>
      <trkpt lat="48.63159" lon="7.1259">
        <ele>434.7</ele>
        <time>2020-08-12T08:36:56Z</time>
      </trkpt>
      <trkpt lat="48.63162" lon="7.12601">
        <ele>434.6</ele>
        <time>2020-08-12T08:36:58Z</time>
      </trkpt>
      <trkpt lat="48.63166" lon="7.12611">
        <ele>434.1</ele>
        <time>2020-08-12T08:37:00Z</time>
      </trkpt>
      <trkpt lat="48.6317" lon="7.12622">
        <ele>434.3</ele>
        <time>2020-08-12T08:37:02Z</time>
      </trkpt>
      <trkpt lat="48.63173" lon="7.12632">
        <ele>435.2</ele>
        <time>2020-08-12T08:37:04Z</time>
      </trkpt>
      <trkpt lat="48.63177" lon="7.12642">
        <ele>436.1</ele>
        <time>2020-08-12T08:37:06Z</time>
      </trkpt>
      <trkpt lat="48.63179" lon="7.12651">
        <ele>436.8</ele>
        <time>2020-08-12T08:37:08Z</time>
      </trkpt>
      <trkpt lat="48.63181" lon="7.12659">
        <ele>438</ele>
        <time>2020-08-12T08:37:10Z</time>
      </trkpt>
      <trkpt lat="48.63182" lon="7.12667">
        <ele>438.6</ele>
        <time>2020-08-12T08:37:12Z</time>
      </trkpt>
      <trkpt lat="48.63184" lon="7.12674">
        <ele>439.4</ele>
        <time>2020-08-12T08:37:14Z</time>
      </trkpt>
      <trkpt lat="48.63186" lon="7.12683">
        <ele>439.2</ele>
        <time>2020-08-12T08:37:16Z</time>
      </trkpt>
      <trkpt lat="48.63187" lon="7.12696">
        <ele>437.8</ele>
        <time>2020-08-12T08:37:18Z</time>
      </trkpt>
      <trkpt lat="48.63188" lon="7.12709">
        <ele>437.3</ele>
        <time>2020-08-12T08:37:20Z</time>
      </trkpt>
      <trkpt lat="48.6319" lon="7.12723">
        <ele>436.4</ele>
        <time>2020-08-12T08:37:22Z</time>
      </trkpt>
      <trkpt lat="48.63193" lon="7.12741">
        <ele>436.2</ele>
        <time>2020-08-12T08:37:24Z</time>
      </trkpt>
      <trkpt lat="48.63199" lon="7.12762">
        <ele>435.5</ele>
        <time>2020-08-12T08:37:26Z</time>
      </trkpt>
      <trkpt lat="48.63205" lon="7.12786">
        <ele>436</ele>
        <time>2020-08-12T08:37:28Z</time>
      </trkpt>
      <trkpt lat="48.63207" lon="7.12808">
        <ele>434.9</ele>
        <time>2020-08-12T08:37:30Z</time>
      </trkpt>
      <trkpt lat="48.63203" lon="7.12828">
        <ele>434.2</ele>
        <time>2020-08-12T08:37:32Z</time>
      </trkpt>
      <trkpt lat="48.63197" lon="7.1284">
        <ele>434.2</ele>
        <time>2020-08-12T08:37:34Z</time>
      </trkpt>
      <trkpt lat="48.6319" lon="7.12847">
        <ele>434</ele>
        <time>2020-08-12T08:37:36Z</time>
      </trkpt>
      <trkpt lat="48.63183" lon="7.12853">
        <ele>433.7</ele>
        <time>2020-08-12T08:37:38Z</time>
      </trkpt>
      <trkpt lat="48.63176" lon="7.12857">
        <ele>434.7</ele>
        <time>2020-08-12T08:37:40Z</time>
      </trkpt>
      <trkpt lat="48.6317" lon="7.1286">
        <ele>435</ele>
        <time>2020-08-12T08:37:42Z</time>
      </trkpt>
      <trkpt lat="48.63164" lon="7.12864">
        <ele>435.7</ele>
        <time>2020-08-12T08:37:44Z</time>
      </trkpt>
      <trkpt lat="48.63157" lon="7.12866">
        <ele>436.1</ele>
        <time>2020-08-12T08:37:46Z</time>
      </trkpt>
      <trkpt lat="48.6315" lon="7.12869">
        <ele>436</ele>
        <time>2020-08-12T08:37:48Z</time>
      </trkpt>
      <trkpt lat="48.63141" lon="7.12871">
        <ele>435.7</ele>
        <time>2020-08-12T08:37:50Z</time>
      </trkpt>
      <trkpt lat="48.63132" lon="7.12872">
        <ele>436</ele>
        <time>2020-08-12T08:37:52Z</time>
      </trkpt>
      <trkpt lat="48.63125" lon="7.12873">
        <ele>436.6</ele>
        <time>2020-08-12T08:37:54Z</time>
      </trkpt>
      <trkpt lat="48.63117" lon="7.12874">
        <ele>437</ele>
        <time>2020-08-12T08:37:56Z</time>
      </trkpt>
      <trkpt lat="48.63104" lon="7.12877">
        <ele>437.2</ele>
        <time>2020-08-12T08:37:58Z</time>
      </trkpt>
      <trkpt lat="48.63094" lon="7.1288">
        <ele>436.9</ele>
        <time>2020-08-12T08:38:00Z</time>
      </trkpt>
      <trkpt lat="48.63086" lon="7.12884">
        <ele>437.5</ele>
        <time>2020-08-12T08:38:02Z</time>
      </trkpt>
      <trkpt lat="48.63077" lon="7.12885">
        <ele>437.1</ele>
        <time>2020-08-12T08:38:04Z</time>
      </trkpt>
      <trkpt lat="48.63069" lon="7.12885">
        <ele>437.2</ele>
        <time>2020-08-12T08:38:06Z</time>
      </trkpt>
      <trkpt lat="48.63061" lon="7.12886">
        <ele>437.8</ele>
        <time>2020-08-12T08:38:08Z</time>
      </trkpt>
      <trkpt lat="48.63052" lon="7.12887">
        <ele>438.1</ele>
        <time>2020-08-12T08:38:10Z</time>
      </trkpt>
      <trkpt lat="48.63044" lon="7.12887">
        <ele>438.6</ele>
        <time>2020-08-12T08:38:12Z</time>
      </trkpt>
      <trkpt lat="48.63033" lon="7.12888">
        <ele>439.2</ele>
        <time>2020-08-12T08:38:14Z</time>
      </trkpt>
      <trkpt lat="48.63024" lon="7.1289">
        <ele>439.4</ele>
        <time>2020-08-12T08:38:16Z</time>
      </trkpt>
      <trkpt lat="48.63016" lon="7.12895">
        <ele>439.4</ele>
        <time>2020-08-12T08:38:18Z</time>
      </trkpt>
      <trkpt lat="48.63012" lon="7.129">
        <ele>439.1</ele>
        <time>2020-08-12T08:38:20Z</time>
      </trkpt>
      <trkpt lat="48.63009" lon="7.12906">
        <ele>438.7</ele>
        <time>2020-08-12T08:38:26Z</time>
      </trkpt>
      <trkpt lat="48.63009" lon="7.12916">
        <ele>437.3</ele>
        <time>2020-08-12T08:38:29Z</time>
      </trkpt>
      <trkpt lat="48.63008" lon="7.12925">
        <ele>436.6</ele>
        <time>2020-08-12T08:38:31Z</time>
      </trkpt>
      <trkpt lat="48.63004" lon="7.12937">
        <ele>435.3</ele>
        <time>2020-08-12T08:38:33Z</time>
      </trkpt>
      <trkpt lat="48.62999" lon="7.12949">
        <ele>434.3</ele>
        <time>2020-08-12T08:38:35Z</time>
      </trkpt>
      <trkpt lat="48.62994" lon="7.1296">
        <ele>433.9</ele>
        <time>2020-08-12T08:38:37Z</time>
      </trkpt>
      <trkpt lat="48.62989" lon="7.12972">
        <ele>433.2</ele>
        <time>2020-08-12T08:38:39Z</time>
      </trkpt>
      <trkpt lat="48.62984" lon="7.12986">
        <ele>432.3</ele>
        <time>2020-08-12T08:38:41Z</time>
      </trkpt>
      <trkpt lat="48.62976" lon="7.13">
        <ele>431.7</ele>
        <time>2020-08-12T08:38:43Z</time>
      </trkpt>
      <trkpt lat="48.62967" lon="7.1301">
        <ele>431.4</ele>
        <time>2020-08-12T08:38:45Z</time>
      </trkpt>
      <trkpt lat="48.62961" lon="7.13016">
        <ele>430.7</ele>
        <time>2020-08-12T08:38:47Z</time>
      </trkpt>
      <trkpt lat="48.62957" lon="7.1302">
        <ele>429.2</ele>
        <time>2020-08-12T08:38:50Z</time>
      </trkpt>
      <trkpt lat="48.62952" lon="7.13024">
        <ele>426.4</ele>
        <time>2020-08-12T08:39:05Z</time>
      </trkpt>
      <trkpt lat="48.62947" lon="7.13019">
        <ele>425.8</ele>
        <time>2020-08-12T08:39:08Z</time>
      </trkpt>
      <trkpt lat="48.62944" lon="7.13014">
        <ele>425.5</ele>
        <time>2020-08-12T08:39:10Z</time>
      </trkpt>
      <trkpt lat="48.62939" lon="7.13009">
        <ele>425.1</ele>
        <time>2020-08-12T08:39:12Z</time>
      </trkpt>
      <trkpt lat="48.62933" lon="7.13004">
        <ele>424.5</ele>
        <time>2020-08-12T08:39:14Z</time>
      </trkpt>
      <trkpt lat="48.62928" lon="7.12999">
        <ele>423.9</ele>
        <time>2020-08-12T08:39:16Z</time>
      </trkpt>
      <trkpt lat="48.62923" lon="7.12995">
        <ele>423.4</ele>
        <time>2020-08-12T08:39:18Z</time>
      </trkpt>
      <trkpt lat="48.62917" lon="7.12991">
        <ele>422.4</ele>
        <time>2020-08-12T08:39:20Z</time>
      </trkpt>
      <trkpt lat="48.62911" lon="7.12989">
        <ele>422.2</ele>
        <time>2020-08-12T08:39:22Z</time>
      </trkpt>
      <trkpt lat="48.62905" lon="7.12987">
        <ele>421.5</ele>
        <time>2020-08-12T08:39:24Z</time>
      </trkpt>
      <trkpt lat="48.629" lon="7.12984">
        <ele>421.4</ele>
        <time>2020-08-12T08:39:26Z</time>
      </trkpt>
      <trkpt lat="48.62895" lon="7.12982">
        <ele>421.9</ele>
        <time>2020-08-12T08:39:28Z</time>
      </trkpt>
      <trkpt lat="48.62889" lon="7.1298">
        <ele>421.6</ele>
        <time>2020-08-12T08:39:30Z</time>
      </trkpt>
      <trkpt lat="48.62884" lon="7.12978">
        <ele>421.4</ele>
        <time>2020-08-12T08:39:32Z</time>
      </trkpt>
      <trkpt lat="48.6288" lon="7.12974">
        <ele>420.8</ele>
        <time>2020-08-12T08:39:34Z</time>
      </trkpt>
      <trkpt lat="48.62876" lon="7.1297">
        <ele>418.7</ele>
        <time>2020-08-12T08:39:37Z</time>
      </trkpt>
      <trkpt lat="48.62871" lon="7.1297">
        <ele>416.4</ele>
        <time>2020-08-12T08:39:41Z</time>
      </trkpt>
      <trkpt lat="48.62874" lon="7.12977">
        <ele>414.8</ele>
        <time>2020-08-12T08:39:47Z</time>
      </trkpt>
      <trkpt lat="48.62876" lon="7.12984">
        <ele>414.4</ele>
        <time>2020-08-12T08:39:50Z</time>
      </trkpt>
      <trkpt lat="48.62879" lon="7.12991">
        <ele>414.1</ele>
        <time>2020-08-12T08:39:55Z</time>
      </trkpt>
      <trkpt lat="48.62881" lon="7.12998">
        <ele>413.5</ele>
        <time>2020-08-12T08:39:58Z</time>
      </trkpt>
      <trkpt lat="48.62884" lon="7.13005">
        <ele>413.5</ele>
        <time>2020-08-12T08:40:00Z</time>
      </trkpt>
      <trkpt lat="48.62888" lon="7.13012">
        <ele>413.3</ele>
        <time>2020-08-12T08:40:02Z</time>
      </trkpt>
      <trkpt lat="48.62892" lon="7.1302">
        <ele>413.3</ele>
        <time>2020-08-12T08:40:04Z</time>
      </trkpt>
      <trkpt lat="48.62897" lon="7.13026">
        <ele>414</ele>
        <time>2020-08-12T08:40:06Z</time>
      </trkpt>
      <trkpt lat="48.629" lon="7.13032">
        <ele>414.8</ele>
        <time>2020-08-12T08:40:08Z</time>
      </trkpt>
      <trkpt lat="48.62902" lon="7.13038">
        <ele>415.2</ele>
        <time>2020-08-12T08:40:11Z</time>
      </trkpt>
      <trkpt lat="48.62902" lon="7.13045">
        <ele>415.5</ele>
        <time>2020-08-12T08:40:14Z</time>
      </trkpt>
      <trkpt lat="48.62901" lon="7.13053">
        <ele>415.8</ele>
        <time>2020-08-12T08:40:16Z</time>
      </trkpt>
      <trkpt lat="48.629" lon="7.13063">
        <ele>415.5</ele>
        <time>2020-08-12T08:40:18Z</time>
      </trkpt>
      <trkpt lat="48.62899" lon="7.13075">
        <ele>414.9</ele>
        <time>2020-08-12T08:40:20Z</time>
      </trkpt>
      <trkpt lat="48.62896" lon="7.13086">
        <ele>414.9</ele>
        <time>2020-08-12T08:40:22Z</time>
      </trkpt>
      <trkpt lat="48.62894" lon="7.13096">
        <ele>415.2</ele>
        <time>2020-08-12T08:40:24Z</time>
      </trkpt>
      <trkpt lat="48.62893" lon="7.13107">
        <ele>414.9</ele>
        <time>2020-08-12T08:40:26Z</time>
      </trkpt>
      <trkpt lat="48.62894" lon="7.13117">
        <ele>414.1</ele>
        <time>2020-08-12T08:40:28Z</time>
      </trkpt>
      <trkpt lat="48.62894" lon="7.13127">
        <ele>413.8</ele>
        <time>2020-08-12T08:40:30Z</time>
      </trkpt>
      <trkpt lat="48.62892" lon="7.13138">
        <ele>413.5</ele>
        <time>2020-08-12T08:40:32Z</time>
      </trkpt>
      <trkpt lat="48.6289" lon="7.13148">
        <ele>413.6</ele>
        <time>2020-08-12T08:40:34Z</time>
      </trkpt>
      <trkpt lat="48.62887" lon="7.13158">
        <ele>413.2</ele>
        <time>2020-08-12T08:40:36Z</time>
      </trkpt>
      <trkpt lat="48.62885" lon="7.13167">
        <ele>413</ele>
        <time>2020-08-12T08:40:38Z</time>
      </trkpt>
      <trkpt lat="48.62884" lon="7.13174">
        <ele>412.7</ele>
        <time>2020-08-12T08:40:40Z</time>
      </trkpt>
      <trkpt lat="48.62882" lon="7.13181">
        <ele>413.3</ele>
        <time>2020-08-12T08:40:42Z</time>
      </trkpt>
      <trkpt lat="48.6288" lon="7.1319">
        <ele>414.1</ele>
        <time>2020-08-12T08:40:44Z</time>
      </trkpt>
      <trkpt lat="48.62877" lon="7.13198">
        <ele>414.9</ele>
        <time>2020-08-12T08:40:46Z</time>
      </trkpt>
      <trkpt lat="48.62873" lon="7.13205">
        <ele>415.4</ele>
        <time>2020-08-12T08:40:48Z</time>
      </trkpt>
      <trkpt lat="48.62868" lon="7.13211">
        <ele>415.7</ele>
        <time>2020-08-12T08:40:50Z</time>
      </trkpt>
      <trkpt lat="48.62862" lon="7.13216">
        <ele>415.5</ele>
        <time>2020-08-12T08:40:52Z</time>
      </trkpt>
      <trkpt lat="48.62856" lon="7.13221">
        <ele>414.1</ele>
        <time>2020-08-12T08:40:54Z</time>
      </trkpt>
      <trkpt lat="48.6285" lon="7.13226">
        <ele>413.3</ele>
        <time>2020-08-12T08:40:56Z</time>
      </trkpt>
      <trkpt lat="48.62844" lon="7.13233">
        <ele>412.4</ele>
        <time>2020-08-12T08:40:58Z</time>
      </trkpt>
      <trkpt lat="48.62839" lon="7.13241">
        <ele>411.9</ele>
        <time>2020-08-12T08:41:00Z</time>
      </trkpt>
      <trkpt lat="48.62834" lon="7.13249">
        <ele>411.2</ele>
        <time>2020-08-12T08:41:02Z</time>
      </trkpt>
      <trkpt lat="48.6283" lon="7.13258">
        <ele>410.8</ele>
        <time>2020-08-12T08:41:04Z</time>
      </trkpt>
      <trkpt lat="48.62826" lon="7.13266">
        <ele>410.7</ele>
        <time>2020-08-12T08:41:06Z</time>
      </trkpt>
      <trkpt lat="48.62821" lon="7.13272">
        <ele>410.4</ele>
        <time>2020-08-12T08:41:08Z</time>
      </trkpt>
      <trkpt lat="48.62818" lon="7.13278">
        <ele>410.2</ele>
        <time>2020-08-12T08:41:10Z</time>
      </trkpt>
      <trkpt lat="48.62814" lon="7.13283">
        <ele>410.2</ele>
        <time>2020-08-12T08:41:12Z</time>
      </trkpt>
      <trkpt lat="48.62811" lon="7.13288">
        <ele>410.3</ele>
        <time>2020-08-12T08:41:14Z</time>
      </trkpt>
      <trkpt lat="48.62806" lon="7.13293">
        <ele>410.4</ele>
        <time>2020-08-12T08:41:16Z</time>
      </trkpt>
      <trkpt lat="48.62802" lon="7.133">
        <ele>410.5</ele>
        <time>2020-08-12T08:41:18Z</time>
      </trkpt>
      <trkpt lat="48.62797" lon="7.13305">
        <ele>410.7</ele>
        <time>2020-08-12T08:41:20Z</time>
      </trkpt>
      <trkpt lat="48.62792" lon="7.13309">
        <ele>410.6</ele>
        <time>2020-08-12T08:41:22Z</time>
      </trkpt>
      <trkpt lat="48.62788" lon="7.13314">
        <ele>407.7</ele>
        <time>2020-08-12T08:41:24Z</time>
      </trkpt>
      <trkpt lat="48.62783" lon="7.13321">
        <ele>406.4</ele>
        <time>2020-08-12T08:41:26Z</time>
      </trkpt>
      <trkpt lat="48.62778" lon="7.13327">
        <ele>404.7</ele>
        <time>2020-08-12T08:41:28Z</time>
      </trkpt>
      <trkpt lat="48.62771" lon="7.13331">
        <ele>403.4</ele>
        <time>2020-08-12T08:41:30Z</time>
      </trkpt>
      <trkpt lat="48.62763" lon="7.13334">
        <ele>403</ele>
        <time>2020-08-12T08:41:32Z</time>
      </trkpt>
      <trkpt lat="48.62756" lon="7.13336">
        <ele>400.3</ele>
        <time>2020-08-12T08:41:34Z</time>
      </trkpt>
      <trkpt lat="48.62749" lon="7.13339">
        <ele>399.5</ele>
        <time>2020-08-12T08:41:36Z</time>
      </trkpt>
      <trkpt lat="48.62743" lon="7.13343">
        <ele>398.9</ele>
        <time>2020-08-12T08:41:38Z</time>
      </trkpt>
      <trkpt lat="48.62737" lon="7.1335">
        <ele>400.6</ele>
        <time>2020-08-12T08:41:40Z</time>
      </trkpt>
      <trkpt lat="48.6273" lon="7.13359">
        <ele>401.3</ele>
        <time>2020-08-12T08:41:42Z</time>
      </trkpt>
      <trkpt lat="48.62724" lon="7.13368">
        <ele>402.9</ele>
        <time>2020-08-12T08:41:44Z</time>
      </trkpt>
      <trkpt lat="48.62719" lon="7.13377">
        <ele>404</ele>
        <time>2020-08-12T08:41:46Z</time>
      </trkpt>
      <trkpt lat="48.62716" lon="7.13384">
        <ele>405.3</ele>
        <time>2020-08-12T08:41:48Z</time>
      </trkpt>
      <trkpt lat="48.62714" lon="7.1339">
        <ele>406.9</ele>
        <time>2020-08-12T08:41:51Z</time>
      </trkpt>
      <trkpt lat="48.62714" lon="7.13398">
        <ele>410.4</ele>
        <time>2020-08-12T08:41:56Z</time>
      </trkpt>
      <trkpt lat="48.62718" lon="7.13406">
        <ele>412.1</ele>
        <time>2020-08-12T08:41:59Z</time>
      </trkpt>
      <trkpt lat="48.62721" lon="7.13414">
        <ele>412.7</ele>
        <time>2020-08-12T08:42:01Z</time>
      </trkpt>
      <trkpt lat="48.62725" lon="7.1342">
        <ele>413.5</ele>
        <time>2020-08-12T08:42:03Z</time>
      </trkpt>
      <trkpt lat="48.62729" lon="7.13427">
        <ele>414.9</ele>
        <time>2020-08-12T08:42:05Z</time>
      </trkpt>
      <trkpt lat="48.62734" lon="7.13433">
        <ele>416.2</ele>
        <time>2020-08-12T08:42:07Z</time>
      </trkpt>
      <trkpt lat="48.62738" lon="7.13438">
        <ele>417.3</ele>
        <time>2020-08-12T08:42:09Z</time>
      </trkpt>
      <trkpt lat="48.62742" lon="7.13442">
        <ele>418.7</ele>
        <time>2020-08-12T08:42:11Z</time>
      </trkpt>
      <trkpt lat="48.62746" lon="7.13447">
        <ele>420.5</ele>
        <time>2020-08-12T08:42:15Z</time>
      </trkpt>
      <trkpt lat="48.62751" lon="7.13451">
        <ele>424.2</ele>
        <time>2020-08-12T08:42:21Z</time>
      </trkpt>
      <trkpt lat="48.62755" lon="7.13457">
        <ele>427.8</ele>
        <time>2020-08-12T08:42:25Z</time>
      </trkpt>
      <trkpt lat="48.62758" lon="7.13463">
        <ele>431.2</ele>
        <time>2020-08-12T08:42:29Z</time>
      </trkpt>
      <trkpt lat="48.62763" lon="7.13468">
        <ele>435.3</ele>
        <time>2020-08-12T08:42:39Z</time>
      </trkpt>
      <trkpt lat="48.62768" lon="7.13473">
        <ele>436.2</ele>
        <time>2020-08-12T08:42:42Z</time>
      </trkpt>
      <trkpt lat="48.62771" lon="7.13478">
        <ele>437.1</ele>
        <time>2020-08-12T08:42:44Z</time>
      </trkpt>
      <trkpt lat="48.62775" lon="7.13484">
        <ele>438.1</ele>
        <time>2020-08-12T08:42:46Z</time>
      </trkpt>
      <trkpt lat="48.6278" lon="7.1349">
        <ele>437.5</ele>
        <time>2020-08-12T08:42:48Z</time>
      </trkpt>
      <trkpt lat="48.62784" lon="7.13494">
        <ele>437.5</ele>
        <time>2020-08-12T08:42:50Z</time>
      </trkpt>
      <trkpt lat="48.62788" lon="7.135">
        <ele>437.5</ele>
        <time>2020-08-12T08:42:52Z</time>
      </trkpt>
      <trkpt lat="48.6279" lon="7.13507">
        <ele>439.2</ele>
        <time>2020-08-12T08:42:54Z</time>
      </trkpt>
      <trkpt lat="48.62793" lon="7.13514">
        <ele>441.3</ele>
        <time>2020-08-12T08:42:56Z</time>
      </trkpt>
      <trkpt lat="48.62797" lon="7.13518">
        <ele>443.6</ele>
        <time>2020-08-12T08:42:58Z</time>
      </trkpt>
      <trkpt lat="48.628" lon="7.13524">
        <ele>444.7</ele>
        <time>2020-08-12T08:43:00Z</time>
      </trkpt>
      <trkpt lat="48.62803" lon="7.13532">
        <ele>445.8</ele>
        <time>2020-08-12T08:43:03Z</time>
      </trkpt>
      <trkpt lat="48.62807" lon="7.13538">
        <ele>446.4</ele>
        <time>2020-08-12T08:43:08Z</time>
      </trkpt>
      <trkpt lat="48.62811" lon="7.13542">
        <ele>444.7</ele>
        <time>2020-08-12T08:43:16Z</time>
      </trkpt>
      <trkpt lat="48.62815" lon="7.13548">
        <ele>444.3</ele>
        <time>2020-08-12T08:43:19Z</time>
      </trkpt>
      <trkpt lat="48.62819" lon="7.13556">
        <ele>444.5</ele>
        <time>2020-08-12T08:43:21Z</time>
      </trkpt>
      <trkpt lat="48.62823" lon="7.13564">
        <ele>444.7</ele>
        <time>2020-08-12T08:43:23Z</time>
      </trkpt>
      <trkpt lat="48.62828" lon="7.13572">
        <ele>445.7</ele>
        <time>2020-08-12T08:43:25Z</time>
      </trkpt>
      <trkpt lat="48.62831" lon="7.13579">
        <ele>447.1</ele>
        <time>2020-08-12T08:43:27Z</time>
      </trkpt>
      <trkpt lat="48.62834" lon="7.13585">
        <ele>448.4</ele>
        <time>2020-08-12T08:43:29Z</time>
      </trkpt>
      <trkpt lat="48.62837" lon="7.13591">
        <ele>448.9</ele>
        <time>2020-08-12T08:43:31Z</time>
      </trkpt>
      <trkpt lat="48.6284" lon="7.13597">
        <ele>452.7</ele>
        <time>2020-08-12T08:43:36Z</time>
      </trkpt>
      <trkpt lat="48.62844" lon="7.13604">
        <ele>455.9</ele>
        <time>2020-08-12T08:43:48Z</time>
      </trkpt>
      <trkpt lat="48.62848" lon="7.1361">
        <ele>456</ele>
        <time>2020-08-12T08:43:50Z</time>
      </trkpt>
      <trkpt lat="48.62852" lon="7.13618">
        <ele>455.9</ele>
        <time>2020-08-12T08:43:52Z</time>
      </trkpt>
      <trkpt lat="48.62858" lon="7.13627">
        <ele>456.3</ele>
        <time>2020-08-12T08:43:54Z</time>
      </trkpt>
      <trkpt lat="48.62863" lon="7.13637">
        <ele>455.1</ele>
        <time>2020-08-12T08:43:56Z</time>
      </trkpt>
      <trkpt lat="48.62868" lon="7.13646">
        <ele>455</ele>
        <time>2020-08-12T08:43:58Z</time>
      </trkpt>
      <trkpt lat="48.62872" lon="7.13652">
        <ele>454.1</ele>
        <time>2020-08-12T08:44:00Z</time>
      </trkpt>
      <trkpt lat="48.62876" lon="7.13649">
        <ele>448.5</ele>
        <time>2020-08-12T08:44:22Z</time>
      </trkpt>
      <trkpt lat="48.62881" lon="7.13651">
        <ele>448.2</ele>
        <time>2020-08-12T08:44:35Z</time>
      </trkpt>
      <trkpt lat="48.62886" lon="7.13651">
        <ele>445.1</ele>
        <time>2020-08-12T08:44:42Z</time>
      </trkpt>
      <trkpt lat="48.6289" lon="7.13653">
        <ele>445.3</ele>
        <time>2020-08-12T08:44:49Z</time>
      </trkpt>
      <trkpt lat="48.62895" lon="7.13656">
        <ele>444.8</ele>
        <time>2020-08-12T08:44:55Z</time>
      </trkpt>
      <trkpt lat="48.62899" lon="7.13662">
        <ele>442.5</ele>
        <time>2020-08-12T08:44:59Z</time>
      </trkpt>
      <trkpt lat="48.62903" lon="7.13666">
        <ele>439</ele>
        <time>2020-08-12T08:45:04Z</time>
      </trkpt>
      <trkpt lat="48.62908" lon="7.13671">
        <ele>437.2</ele>
        <time>2020-08-12T08:45:09Z</time>
      </trkpt>
      <trkpt lat="48.62912" lon="7.13676">
        <ele>435.6</ele>
        <time>2020-08-12T08:45:13Z</time>
      </trkpt>
      <trkpt lat="48.62917" lon="7.1368">
        <ele>435.4</ele>
        <time>2020-08-12T08:45:17Z</time>
      </trkpt>
      <trkpt lat="48.62922" lon="7.13682">
        <ele>435.6</ele>
        <time>2020-08-12T08:45:21Z</time>
      </trkpt>
      <trkpt lat="48.62927" lon="7.13685">
        <ele>434.2</ele>
        <time>2020-08-12T08:45:26Z</time>
      </trkpt>
      <trkpt lat="48.6293" lon="7.13689">
        <ele>429.7</ele>
        <time>2020-08-12T08:45:31Z</time>
      </trkpt>
      <trkpt lat="48.62935" lon="7.13693">
        <ele>428</ele>
        <time>2020-08-12T08:45:37Z</time>
      </trkpt>
      <trkpt lat="48.62939" lon="7.13697">
        <ele>427.1</ele>
        <time>2020-08-12T08:45:43Z</time>
      </trkpt>
      <trkpt lat="48.62943" lon="7.13702">
        <ele>427.9</ele>
        <time>2020-08-12T08:45:48Z</time>
      </trkpt>
      <trkpt lat="48.62948" lon="7.13705">
        <ele>428.5</ele>
        <time>2020-08-12T08:45:52Z</time>
      </trkpt>
      <trkpt lat="48.62953" lon="7.13707">
        <ele>431.4</ele>
        <time>2020-08-12T08:45:57Z</time>
      </trkpt>
      <trkpt lat="48.62958" lon="7.13711">
        <ele>434.6</ele>
        <time>2020-08-12T08:46:02Z</time>
      </trkpt>
      <trkpt lat="48.62962" lon="7.13713">
        <ele>438.3</ele>
        <time>2020-08-12T08:46:08Z</time>
      </trkpt>
      <trkpt lat="48.62967" lon="7.13715">
        <ele>440.3</ele>
        <time>2020-08-12T08:46:13Z</time>
      </trkpt>
      <trkpt lat="48.62971" lon="7.1372">
        <ele>444.5</ele>
        <time>2020-08-12T08:46:17Z</time>
      </trkpt>
      <trkpt lat="48.62975" lon="7.13724">
        <ele>447.1</ele>
        <time>2020-08-12T08:46:22Z</time>
      </trkpt>
      <trkpt lat="48.6298" lon="7.13726">
        <ele>447.5</ele>
        <time>2020-08-12T08:46:27Z</time>
      </trkpt>
      <trkpt lat="48.62985" lon="7.13726">
        <ele>447.9</ele>
        <time>2020-08-12T08:46:32Z</time>
      </trkpt>
      <trkpt lat="48.62989" lon="7.13727">
        <ele>449.9</ele>
        <time>2020-08-12T08:46:39Z</time>
      </trkpt>
      <trkpt lat="48.62994" lon="7.1373">
        <ele>450.8</ele>
        <time>2020-08-12T08:46:45Z</time>
      </trkpt>
      <trkpt lat="48.62999" lon="7.13733">
        <ele>451.9</ele>
        <time>2020-08-12T08:46:50Z</time>
      </trkpt>
      <trkpt lat="48.63003" lon="7.13736">
        <ele>453.3</ele>
        <time>2020-08-12T08:46:55Z</time>
      </trkpt>
      <trkpt lat="48.63007" lon="7.1374">
        <ele>452</ele>
        <time>2020-08-12T08:47:01Z</time>
      </trkpt>
      <trkpt lat="48.63012" lon="7.13738">
        <ele>452.3</ele>
        <time>2020-08-12T08:47:09Z</time>
      </trkpt>
      <trkpt lat="48.63017" lon="7.13739">
        <ele>455.5</ele>
        <time>2020-08-12T08:47:19Z</time>
      </trkpt>
      <trkpt lat="48.63021" lon="7.13737">
        <ele>458.8</ele>
        <time>2020-08-12T08:47:28Z</time>
      </trkpt>
      <trkpt lat="48.63024" lon="7.13731">
        <ele>460.8</ele>
        <time>2020-08-12T08:47:34Z</time>
      </trkpt>
      <trkpt lat="48.63028" lon="7.13727">
        <ele>462.7</ele>
        <time>2020-08-12T08:47:42Z</time>
      </trkpt>
      <trkpt lat="48.63033" lon="7.13729">
        <ele>463.1</ele>
        <time>2020-08-12T08:47:48Z</time>
      </trkpt>
      <trkpt lat="48.63037" lon="7.13734">
        <ele>462.8</ele>
        <time>2020-08-12T08:47:53Z</time>
      </trkpt>
      <trkpt lat="48.63042" lon="7.13734">
        <ele>462.1</ele>
        <time>2020-08-12T08:48:00Z</time>
      </trkpt>
      <trkpt lat="48.63046" lon="7.13737">
        <ele>462.7</ele>
        <time>2020-08-12T08:48:07Z</time>
      </trkpt>
      <trkpt lat="48.63051" lon="7.1374">
        <ele>464.1</ele>
        <time>2020-08-12T08:48:13Z</time>
      </trkpt>
      <trkpt lat="48.63055" lon="7.13742">
        <ele>465.1</ele>
        <time>2020-08-12T08:48:16Z</time>
      </trkpt>
      <trkpt lat="48.6306" lon="7.13743">
        <ele>466.2</ele>
        <time>2020-08-12T08:48:19Z</time>
      </trkpt>
      <trkpt lat="48.63064" lon="7.13739">
        <ele>467.8</ele>
        <time>2020-08-12T08:48:23Z</time>
      </trkpt>
      <trkpt lat="48.63069" lon="7.13736">
        <ele>470.2</ele>
        <time>2020-08-12T08:48:31Z</time>
      </trkpt>
      <trkpt lat="48.63074" lon="7.13739">
        <ele>470.1</ele>
        <time>2020-08-12T08:48:35Z</time>
      </trkpt>
      <trkpt lat="48.63078" lon="7.13743">
        <ele>469.8</ele>
        <time>2020-08-12T08:48:37Z</time>
      </trkpt>
      <trkpt lat="48.63083" lon="7.13748">
        <ele>470.1</ele>
        <time>2020-08-12T08:48:39Z</time>
      </trkpt>
      <trkpt lat="48.63087" lon="7.13753">
        <ele>470.7</ele>
        <time>2020-08-12T08:48:41Z</time>
      </trkpt>
      <trkpt lat="48.63091" lon="7.13758">
        <ele>470.7</ele>
        <time>2020-08-12T08:48:43Z</time>
      </trkpt>
      <trkpt lat="48.63096" lon="7.13762">
        <ele>470.5</ele>
        <time>2020-08-12T08:48:46Z</time>
      </trkpt>
      <trkpt lat="48.63102" lon="7.13763">
        <ele>469.9</ele>
        <time>2020-08-12T08:48:49Z</time>
      </trkpt>
      <trkpt lat="48.63107" lon="7.13765">
        <ele>469.7</ele>
        <time>2020-08-12T08:48:51Z</time>
      </trkpt>
      <trkpt lat="48.63112" lon="7.13769">
        <ele>468.5</ele>
        <time>2020-08-12T08:48:53Z</time>
      </trkpt>
      <trkpt lat="48.63116" lon="7.13774">
        <ele>467.6</ele>
        <time>2020-08-12T08:48:55Z</time>
      </trkpt>
      <trkpt lat="48.6312" lon="7.13778">
        <ele>466.8</ele>
        <time>2020-08-12T08:48:57Z</time>
      </trkpt>
      <trkpt lat="48.63125" lon="7.1378">
        <ele>465.5</ele>
        <time>2020-08-12T08:48:59Z</time>
      </trkpt>
      <trkpt lat="48.63131" lon="7.13783">
        <ele>464.5</ele>
        <time>2020-08-12T08:49:01Z</time>
      </trkpt>
      <trkpt lat="48.63136" lon="7.13788">
        <ele>463</ele>
        <time>2020-08-12T08:49:03Z</time>
      </trkpt>
      <trkpt lat="48.63142" lon="7.13795">
        <ele>462.1</ele>
        <time>2020-08-12T08:49:05Z</time>
      </trkpt>
      <trkpt lat="48.63147" lon="7.13802">
        <ele>461</ele>
        <time>2020-08-12T08:49:07Z</time>
      </trkpt>
      <trkpt lat="48.63152" lon="7.13811">
        <ele>460.6</ele>
        <time>2020-08-12T08:49:09Z</time>
      </trkpt>
      <trkpt lat="48.63157" lon="7.13819">
        <ele>460.3</ele>
        <time>2020-08-12T08:49:11Z</time>
      </trkpt>
      <trkpt lat="48.63161" lon="7.13828">
        <ele>460.5</ele>
        <time>2020-08-12T08:49:13Z</time>
      </trkpt>
    </trkseg>
  </trk>
</gpx>